Πλησιέστερες Αναφορές METAR

 

LGTS - Thessaloniki/Makedonia-Elev 7m
Απόσταση από σταθμό: Ν 13km
Ενημερώθηκε: 08/08/2020 00:20
Διάσπαρτα Νέφη
Διάσπαρτα Νέφη
 Ανεμοι από ΒΒΔ
Ανεμος: ΒΒΔ 22 km/h
Θερμοκρασία: 25°C
Σημείο Δρόσου: 18°C
Υγρασία: 65%
Βαρόμετρο: 1010 hPa
Νέφωση: Διάσπαρτα Νέφη
Ορατότητα: 10 km
Λεπτομέρειες Νεφών: Διάσπαρτα Νέφη 610 m
2020/08/07 21:20 LGTS 072120Z 33012KT 9999 FEW020 25/18 Q1010 NOSIG
LGAV - Athens/Elef. Venizelos-Elev 94m
Απόσταση από σταθμό: ΝΝΑ 312km
Ενημερώθηκε: 08/08/2020 00:20
Μερικώς νεφελώδης
Μερικώς νεφελώδης
 Ανεμοι από ΝΔ
Ανεμος: ΝΔ 2 km/h
Θερμοκρασία: 24°C
Σημείο Δρόσου: 19°C
Υγρασία: 74%
Βαρόμετρο: 1010 hPa
Νέφωση: Μερικώς νεφελώδης
Ορατότητα: 10 km
Λεπτομέρειες Νεφών: Διάσπαρτα Νέφη 610 m
Μερικώς νεφελώδης 1067 m
2020/08/07 21:20 LGAV 072120Z 23001KT 9999 FEW020 SCT035 24/19 Q1010 NOSIG
 
LGAL - Alexandroupolis-Elev 3m
Απόσταση από σταθμό: Α 251km
Ενημερώθηκε: 07/08/2020 22:20
ΜΗ Ενημερωμένο METAR!
Διάσπαρτα Νέφη
Διάσπαρτα Νέφη
 Ανεμοι από ΑΒΑ
Ανεμος: ΑΒΑ 15 km/h
Θερμοκρασία: 27°C
Δείκτης Δυσφορίας: 29°C
Σημείο Δρόσου: 20°C
Υγρασία: 66%
Βαρόμετρο: 1009 hPa
Νέφωση: Διάσπαρτα Νέφη
Ορατότητα: 10 km
Λεπτομέρειες Νεφών: Διάσπαρτα Νέφη 1067 m
2020/08/07 19:20 LGAL 071920Z 07008KT 9999 FEW035 27/20 Q1009
LGKV - Kavala/Crysoupolis-Elev 5m
Απόσταση από σταθμό: ΑΒΑ 144km
Ενημερώθηκε: 07/08/2020 23:20
ΜΗ Ενημερωμένο METAR!
Διάσπαρτα Νέφη
Διάσπαρτα Νέφη
 Ανεμοι από μεταβλητός
Ανεμος: μεταβλητός 4 km/h
Θερμοκρασία: 25°C
Σημείο Δρόσου: 22°C
Υγρασία: 83%
Βαρόμετρο: 1008 hPa
Νέφωση: Διάσπαρτα Νέφη
Ορατότητα: 10 km
Λεπτομέρειες Νεφών: Διάσπαρτα Νέφη 914 m
2020/08/07 20:20 LGKV 072020Z VRB02KT 9999 FEW030 25/22 Q1008
 
LGSK - Skiathos Island-Elev 15m
Απόσταση από σταθμό: ΝΝΑ 168km
Ενημερώθηκε: 07/08/2020 20:50
ΜΗ Ενημερωμένο METAR!
Διάσπαρτα Νέφη
Διάσπαρτα Νέφη
 Ανεμοι από άπνοια
Ανεμος: άπνοια
Θερμοκρασία: 25°C
Σημείο Δρόσου: 20°C
Υγρασία: 74%
Βαρόμετρο: 1010 hPa
Νέφωση: Διάσπαρτα Νέφη
Ορατότητα: 10 km
Λεπτομέρειες Νεφών: Διάσπαρτα Νέφη 610 m
2020/08/07 17:50 LGSK 071750Z 00000KT 9999 FEW020 25/20 Q1010
LGLM - Limnos Island-Elev 5m
Απόσταση από σταθμό: ΑΝΑ 210km
Ενημερώθηκε: 07/08/2020 23:50
Διάσπαρτα Νέφη
Διάσπαρτα Νέφη
 Ανεμοι από άπνοια
Ανεμος: άπνοια
Θερμοκρασία: 25°C
Σημείο Δρόσου: 20°C
Υγρασία: 74%
Βαρόμετρο: 1008 hPa
Νέφωση: Διάσπαρτα Νέφη
Ορατότητα: 10 km
Λεπτομέρειες Νεφών: Διάσπαρτα Νέφη 762 m
2020/08/07 20:50 LGLM 072050Z 00000KT 9999 FEW025 25/20 Q1008
 
LGMT - Mitilini Island-Elev 17m
Απόσταση από σταθμό: ΑΝΑ 358km
Ενημερώθηκε: 07/08/2020 23:50
Αίθριος
Αίθριος
 Ανεμοι από άπνοια
Ανεμος: άπνοια
Θερμοκρασία: 28°C
Δείκτης Δυσφορίας: 30°C
Σημείο Δρόσου: 21°C
Υγρασία: 66%
Βαρόμετρο: 1009 hPa
Περίληψη: Αίθριος
Ορατότητα: πάνω από 10 km
2020/08/07 20:50 LGMT 072050Z 00000KT CAVOK 28/21 Q1009
LGSY - Skiros Island-Elev 15m
Απόσταση από σταθμό: ΝΑ 227km
Ενημερώθηκε: 07/08/2020 20:50
ΜΗ Ενημερωμένο METAR!
Αίθριος
Αίθριος
 Ανεμοι από Δ
Ανεμος: Δ 13 km/h
Θερμοκρασία: 25°C
Σημείο Δρόσου: 19°C
Υγρασία: 69%
Βαρόμετρο: 1010 hPa
Περίληψη: Αίθριος
Ορατότητα: πάνω από 10 km
2020/08/07 17:50 LGSY 071750Z 27007KT CAVOK 25/19 Q1010 BLU
 
LGKZ - Kozani-Elev 628m
Απόσταση από σταθμό: ΔΝΔ 102km
Ενημερώθηκε: 07/08/2020 17:50
ΜΗ Ενημερωμένο METAR!
Ασθενής βροχή
Ασθενής βροχή
 Ανεμοι από Ν
Ανεμος: Ν 9 km/h
Θερμοκρασία: 18°C
Σημείο Δρόσου: 16°C
Υγρασία: 88%
Βαρόμετρο: 1015 hPa
Περίληψη: Ασθενής βροχή
2020/08/07 14:50 LGKZ 071450Z AUTO 19005KT 100V200 //// -RA ////// 18/16 Q1015 RE//
LGIO - Ioannina-Elev 476m
Απόσταση από σταθμό: ΔΝΔ 209km
Ενημερώθηκε: 08/08/2020 00:20

 Ανεμοι από άπνοια
Ανεμος: άπνοια
Θερμοκρασία: 16°C
Σημείο Δρόσου: 16°C
Υγρασία: 100%
Βαρόμετρο: 1014 hPa
2020/08/07 21:20 LGIO 072120Z AUTO 00000KT //// // ////// 16/16 Q1014 RE//
 
LGZA - Zakinthos-Elev 3m
Απόσταση από σταθμό: ΝΝΔ 367km
Ενημερώθηκε: 07/08/2020 21:50
ΜΗ Ενημερωμένο METAR!
Διάσπαρτα Νέφη
Διάσπαρτα Νέφη
 Ανεμοι από ΔΒΔ
Ανεμος: ΔΒΔ 7 km/h
Θερμοκρασία: 26°C
Σημείο Δρόσου: 18°C
Υγρασία: 61%
Βαρόμετρο: 1012 hPa
Νέφωση: Διάσπαρτα Νέφη
Ορατότητα: 10 km
Λεπτομέρειες Νεφών: Διάσπαρτα Νέφη 610 m
2020/08/07 18:50 LGZA 071850Z 30004KT 9999 FEW020 26/18 Q1012
LGKR - Corfu Island-Elev 2m
Απόσταση από σταθμό: ΔΝΔ 282km
Ενημερώθηκε: 08/08/2020 00:20
Αίθριος
Αίθριος
 Ανεμοι από μεταβλητός
Ανεμος: μεταβλητός 0 km/h
Θερμοκρασία: 22°C
Σημείο Δρόσου: 20°C
Υγρασία: 88%
Βαρόμετρο: 1011 hPa
Περίληψη: Αίθριος
Ορατότητα: πάνω από 10 km
2020/08/07 21:20 LGKR 072120Z /////KT CAVOK 22/20 Q1011 NOSIG
 
LGSO - Syros Island-Elev 72m
Απόσταση από σταθμό: ΝΝΑ 397km
Ενημερώθηκε: 07/08/2020 14:50
ΜΗ Ενημερωμένο METAR!
Διάσπαρτα Νέφη
Διάσπαρτα Νέφη
 Ανεμοι από Α
Ανεμος: Α 15 km/h
Θερμοκρασία: 29°C
Δείκτης Δυσφορίας: 31°C
Σημείο Δρόσου: 21°C
Υγρασία: 62%
Βαρόμετρο: 1011 hPa
Νέφωση: Διάσπαρτα Νέφη
Ορατότητα: 10 km
Λεπτομέρειες Νεφών: Διάσπαρτα Νέφη 457 m
2020/08/07 11:50 LGSO 071150Z 09008KT 9999 FEW015 29/21 Q1011
LGMK - Mikonos Island-Elev 123m
Απόσταση από σταθμό: ΝΝΑ 412km
Ενημερώθηκε: 07/08/2020 23:50
Αίθριος
Αίθριος
 Ανεμοι από μεταβλητός
Ανεμος: μεταβλητός 6 km/h
Θερμοκρασία: 24°C
Σημείο Δρόσου: 20°C
Υγρασία: 78%
Βαρόμετρο: 1010 hPa
Περίληψη: Αίθριος
Ορατότητα: πάνω από 10 km
2020/08/07 20:50 LGMK 072050Z VRB03KT CAVOK 24/20 Q1010
 
LGSR - Santorini Island-Elev 40m
Απόσταση από σταθμό: ΝΝΑ 520km
Ενημερώθηκε: 08/08/2020 00:20
Διάσπαρτα Νέφη
Διάσπαρτα Νέφη
 Ανεμοι από Δ
Ανεμος: Δ 13 km/h
Θερμοκρασία: 25°C
Σημείο Δρόσου: 22°C
Υγρασία: 83%
Βαρόμετρο: 1010 hPa
Νέφωση: Διάσπαρτα Νέφη
Ορατότητα: 10 km
Λεπτομέρειες Νεφών: Διάσπαρτα Νέφη 610 m
2020/08/07 21:20 LGSR 072120Z 27007KT 9999 FEW020 25/22 Q1010
LGKL - Kalamata-Elev 8m
Απόσταση από σταθμό: Ν 405km
Ενημερώθηκε: 08/08/2020 00:20

 Ανεμοι από ΒΒΔ
Ανεμος: ΒΒΔ 7 km/h
Θερμοκρασία: 24°C
Σημείο Δρόσου: 17°C
Υγρασία: 65%
Βαρόμετρο: 1011 hPa
2020/08/07 21:20 LGKL 072120Z AUTO 33004KT //// // ////// 24/17 Q1011 RE//
 
LGIR - Iraklion/Crete-Elev 5m
Απόσταση από σταθμό: ΝΝΑ 622km
Ενημερώθηκε: 08/08/2020 00:20
Διάσπαρτα Νέφη
Διάσπαρτα Νέφη
 Ανεμοι από ΒΔ
Ανεμος: ΒΔ 19 km/h
Θερμοκρασία: 26°C
Σημείο Δρόσου: 21°C
Υγρασία: 74%
Βαρόμετρο: 1011 hPa
Νέφωση: Διάσπαρτα Νέφη
Ορατότητα: 10 km
Λεπτομέρειες Νεφών: Διάσπαρτα Νέφη 610 m
2020/08/07 21:20 LGIR 072120Z 31010KT 9999 FEW020 26/21 Q1011 NOSIG
LGRP - Rhodes-Elev 5m
Απόσταση από σταθμό: ΝΑ 649km
Ενημερώθηκε: 08/08/2020 00:20
Αίθριος
Αίθριος
 Ανεμοι από Δ
Ανεμος: Δ 28 km/h
Θερμοκρασία: 25°C
Σημείο Δρόσου: 24°C
Υγρασία: 94%
Βαρόμετρο: 1007 hPa
Περίληψη: Αίθριος
Ορατότητα: πάνω από 10 km
2020/08/07 21:20 LGRP 072120Z 26015KT CAVOK 25/24 Q1007 NOSIG
 
LWOH - Ohrid/FYROM-Elev 761m
Απόσταση από σταθμό: ΔΒΔ 188km
Ενημερώθηκε: 07/08/2020 21:00
ΜΗ Ενημερωμένο METAR!
Μερικώς νεφελώδης
Μερικώς νεφελώδης
 Ανεμοι από ΒΔ
Ανεμος: ΒΔ 9 km/h
Θερμοκρασία: 19°C
Σημείο Δρόσου: 14°C
Υγρασία: 73%
Βαρόμετρο: 1016 hPa
Νέφωση: Μερικώς νεφελώδης
Ορατότητα: 10 km
Λεπτομέρειες Νεφών: Διάσπαρτα Νέφη 1219 m
Μερικώς νεφελώδης 2743 m
2020/08/07 18:00 LWOH 071800Z 32005KT 9999 FEW040TCU SCT090 19/14 Q1016
LBSF - Sofia/Bulgaria-Elev 595m
Απόσταση από σταθμό: Β 227km
Ενημερώθηκε: 08/08/2020 00:30
Διάσπαρτα Νέφη
Διάσπαρτα Νέφη
 Ανεμοι από ΑΝΑ
Ανεμος: ΑΝΑ 6 km/h
Θερμοκρασία: 18°C
Σημείο Δρόσου: 17°C
Υγρασία: 94%
Βαρόμετρο: 1016 hPa
Νέφωση: Διάσπαρτα Νέφη
Ορατότητα: 8 km
Λεπτομέρειες Νεφών: Διάσπαρτα Νέφη 2347 m
2020/08/07 21:30 LBSF 072130Z 12003KT 090V190 8000 FEW077 18/17 Q1016 TEMPO 4000 BR